createdAt,value
2023-03-21T00:01:14.639Z,3.30
2023-03-21T00:04:16.208Z,3.10
2023-03-21T00:07:17.504Z,2.63
2023-03-21T00:10:29.756Z,3.22
2023-03-21T00:13:42.297Z,3.05
2023-03-21T00:16:45.795Z,2.67
2023-03-21T00:19:51.174Z,3.25
2023-03-21T00:22:52.929Z,2.50
2023-03-21T00:25:54.374Z,2.97
2023-03-21T00:28:55.666Z,3.25
2023-03-21T00:31:56.964Z,3.20
2023-03-21T00:35:16.475Z,3.28
2023-03-21T00:38:20.169Z,2.78
2023-03-21T00:41:35.223Z,3.30
2023-03-21T00:44:43.018Z,3.10
2023-03-21T00:47:44.322Z,3.20
2023-03-21T00:50:46.847Z,3.20
2023-03-21T00:53:48.098Z,2.92
2023-03-21T00:56:49.457Z,2.92
2023-03-21T00:59:50.743Z,2.85
2023-03-21T01:03:04.354Z,2.80
2023-03-21T01:06:13.603Z,3.28
2023-03-21T01:09:16.630Z,2.58
2023-03-21T01:12:17.918Z,2.92
2023-03-21T01:15:19.250Z,2.92
2023-03-21T01:18:22.255Z,2.70
2023-03-21T01:21:23.568Z,2.65
2023-03-21T01:24:24.993Z,3.70
2023-03-21T01:27:26.289Z,3.53
2023-03-21T01:30:31.203Z,3.78
2023-03-21T01:33:33.425Z,3.42
2023-03-21T01:36:34.669Z,4.10
2023-03-21T01:39:36.038Z,3.63
2023-03-21T01:42:37.270Z,3.38
2023-03-21T01:45:57.101Z,2.97
2023-03-21T01:49:10.403Z,3.00
2023-03-21T01:52:26.548Z,3.10
2023-03-21T01:55:31.341Z,3.75
2023-03-21T01:58:33.119Z,3.30
2023-03-21T02:01:34.775Z,3.88
2023-03-21T02:04:37.145Z,3.85
2023-03-21T02:07:41.735Z,3.25
2023-03-21T02:10:43.896Z,3.17
2023-03-21T02:13:45.216Z,3.53
2023-03-21T02:17:09.495Z,3.08
2023-03-21T02:20:22.027Z,2.88
2023-03-21T02:23:33.572Z,3.20
2023-03-21T02:26:48.223Z,2.92
2023-03-21T02:30:17.428Z,3.55
2023-03-21T02:33:41.186Z,3.15
2023-03-21T02:37:01.134Z,3.03
2023-03-21T02:40:19.829Z,2.97
2023-03-21T02:43:30.133Z,2.88
2023-03-21T02:46:49.040Z,2.88
2023-03-21T02:49:55.270Z,2.55
2023-03-21T02:52:57.428Z,2.22
2023-03-21T02:55:59.354Z,2.78
2023-03-21T02:59:00.952Z,3.63
2023-03-21T03:02:02.225Z,3.15
2023-03-21T03:05:20.798Z,2.95
2023-03-21T03:08:35.775Z,3.38
2023-03-21T03:11:43.270Z,3.17
2023-03-21T03:15:02.668Z,3.45
2023-03-21T03:18:13.261Z,2.88
2023-03-21T03:21:18.419Z,2.50
2023-03-21T03:24:23.055Z,2.50
2023-03-21T03:27:27.830Z,2.83
2023-03-21T03:33:46.460Z,2.55
2023-03-21T03:36:51.601Z,2.83
2023-03-21T03:39:56.090Z,3.00
2023-03-21T03:43:01.089Z,2.85
2023-03-21T03:46:12.298Z,2.97
2023-03-21T03:49:18.759Z,2.53
2023-03-21T03:52:22.587Z,2.85
2023-03-21T03:55:27.054Z,2.50
2023-03-21T03:58:43.089Z,2.92
2023-03-21T04:04:48.598Z,2.88
2023-03-21T04:07:52.972Z,2.90
2023-03-21T04:10:54.385Z,2.88
2023-03-21T04:13:55.731Z,3.10
2023-03-21T04:16:56.984Z,2.92
2023-03-21T04:20:10.785Z,3.08
2023-03-21T04:23:14.282Z,3.70
2023-03-21T04:26:15.529Z,3.03
2023-03-21T04:29:16.866Z,3.72
2023-03-21T04:32:19.669Z,3.50
2023-03-21T04:35:21.234Z,3.28
2023-03-21T04:38:23.220Z,2.95
2023-03-21T04:41:24.489Z,3.58
2023-03-21T04:44:26.438Z,4.25
2023-03-21T04:47:28.139Z,3.47
2023-03-21T04:50:29.473Z,4.20
2023-03-21T04:53:31.353Z,5.03
2023-03-21T04:56:33.796Z,6.25
2023-03-21T04:59:35.472Z,6.28
2023-03-21T05:02:37.470Z,6.05
2023-03-21T05:05:39.123Z,5.00
2023-03-21T05:08:41.508Z,4.10
2023-03-21T05:11:42.875Z,3.55
2023-03-21T05:14:44.225Z,4.00
2023-03-21T05:17:48.548Z,4.13
2023-03-21T05:20:54.122Z,4.38
2023-03-21T05:23:58.254Z,3.78
2023-03-21T05:27:02.421Z,4.10
2023-03-21T05:30:11.150Z,3.40
2023-03-21T05:33:12.820Z,3.13
2023-03-21T05:36:14.764Z,3.13
2023-03-21T05:39:16.020Z,3.40
2023-03-21T05:42:18.524Z,3.40
2023-03-21T05:45:19.898Z,2.97
2023-03-21T05:48:21.220Z,4.13
2023-03-21T05:51:22.748Z,3.80
2023-03-21T05:54:24.166Z,3.92
2023-03-21T05:57:28.700Z,3.03
2023-03-21T06:00:30.755Z,3.20
2023-03-21T06:03:32.366Z,3.72
2023-03-21T06:06:33.744Z,3.17
2023-03-21T06:09:35.311Z,3.13
2023-03-21T06:12:36.887Z,3.38
2023-03-21T06:15:39.536Z,3.90
2023-03-21T06:18:40.946Z,2.58
2023-03-21T06:21:42.535Z,3.53
2023-03-21T06:24:43.831Z,7.55
2023-03-21T06:27:45.436Z,7.60
2023-03-21T06:30:46.720Z,4.75
2023-03-21T06:33:48.511Z,4.00
2023-03-21T06:36:52.046Z,3.90
2023-03-21T06:39:55.375Z,3.60
2023-03-21T06:42:56.862Z,3.70
2023-03-21T06:45:59.185Z,4.25
2023-03-21T06:49:00.633Z,4.38
2023-03-21T06:52:02.121Z,3.85
2023-03-21T06:55:03.456Z,4.00
2023-03-21T06:58:04.720Z,3.63
2023-03-21T07:01:06.926Z,3.65
2023-03-21T07:04:08.730Z,3.80
2023-03-21T07:07:10.352Z,3.78
2023-03-21T07:10:11.716Z,3.10
2023-03-21T07:13:13.304Z,3.35
2023-03-21T07:16:15.484Z,3.55
2023-03-21T07:19:16.856Z,3.65
2023-03-21T07:22:18.258Z,3.42
2023-03-21T07:25:20.114Z,3.42
2023-03-21T07:28:21.718Z,2.95
2023-03-21T07:31:26.883Z,3.67
2023-03-21T07:34:33.019Z,3.90
2023-03-21T07:37:35.497Z,2.78
2023-03-21T07:40:38.417Z,3.42
2023-03-21T07:43:39.955Z,3.38
2023-03-21T07:46:41.326Z,3.00
2023-03-21T07:49:42.613Z,3.05
2023-03-21T07:52:43.869Z,3.55
2023-03-21T07:55:45.406Z,3.55
2023-03-21T07:58:46.751Z,3.60
2023-03-21T08:01:48.219Z,3.05
2023-03-21T08:04:49.512Z,3.20
2023-03-21T08:07:51.055Z,3.47
2023-03-21T08:10:52.356Z,2.78
2023-03-21T08:13:55.419Z,2.65
2023-03-21T08:16:56.810Z,4.50
2023-03-21T08:19:58.169Z,3.63
2023-03-21T08:22:59.534Z,3.10
2023-03-21T08:26:01.468Z,2.75
2023-03-21T08:29:02.801Z,3.05
2023-03-21T08:32:04.146Z,3.80
2023-03-21T08:35:09.970Z,3.25
2023-03-21T08:38:11.380Z,3.03
2023-03-21T08:41:12.614Z,3.40
2023-03-21T08:44:16.355Z,2.95
2023-03-21T08:47:17.770Z,3.35
2023-03-21T08:50:20.554Z,3.35
2023-03-21T08:53:21.884Z,3.22
2023-03-21T08:56:23.374Z,3.05
2023-03-21T08:59:24.719Z,3.45
2023-03-21T09:02:26.098Z,3.22
2023-03-21T09:05:28.352Z,2.53
2023-03-21T09:08:29.784Z,2.83
2023-03-21T09:11:31.319Z,3.90
2023-03-21T09:14:34.608Z,4.03
2023-03-21T09:17:36.347Z,3.38
2023-03-21T09:20:38.442Z,3.85
2023-03-21T09:23:40.041Z,4.32
2023-03-21T09:26:41.603Z,3.40
2023-03-21T09:29:44.700Z,3.28
2023-03-21T09:32:49.409Z,3.53
2023-03-21T09:35:52.205Z,3.17
2023-03-21T09:38:54.390Z,3.50
2023-03-21T09:42:03.073Z,2.78
2023-03-21T09:45:25.910Z,3.22
2023-03-21T09:48:56.743Z,3.42
2023-03-21T09:51:59.735Z,3.85
2023-03-21T09:55:02.522Z,3.15
2023-03-21T09:58:16.134Z,3.47
2023-03-21T10:01:29.714Z,3.88
2023-03-21T10:04:32.979Z,2.83
2023-03-21T10:07:38.326Z,3.00
2023-03-21T10:10:44.769Z,3.40
2023-03-21T10:13:57.015Z,2.92
2023-03-21T10:17:05.923Z,3.13
2023-03-21T10:20:11.979Z,2.63
2023-03-21T10:23:14.825Z,3.17
2023-03-21T10:26:17.081Z,3.05
2023-03-21T10:29:22.413Z,2.92
2023-03-21T10:32:23.718Z,3.10
2023-03-21T10:35:25.413Z,3.15
2023-03-21T10:38:27.119Z,3.50
2023-03-21T10:41:28.459Z,2.63
2023-03-21T10:44:31.259Z,3.05
2023-03-21T10:47:34.580Z,3.33
2023-03-21T10:50:36.329Z,3.55
2023-03-21T10:53:46.036Z,3.97
2023-03-21T10:56:57.585Z,3.47
2023-03-21T11:00:00.968Z,3.50
2023-03-21T11:03:03.584Z,3.17
2023-03-21T11:06:16.728Z,3.42
2023-03-21T11:09:23.189Z,3.60
2023-03-21T11:12:39.271Z,3.38
2023-03-21T11:15:46.851Z,2.55
2023-03-21T11:18:51.989Z,2.40
2023-03-21T11:21:53.544Z,2.80
2023-03-21T11:24:59.763Z,2.53
2023-03-21T11:28:06.390Z,3.88
2023-03-21T11:31:09.309Z,3.30
2023-03-21T11:34:22.580Z,3.35
2023-03-21T11:37:23.870Z,3.30
2023-03-21T11:40:28.975Z,2.85
2023-03-21T11:43:39.915Z,2.92
2023-03-21T11:46:41.374Z,2.47
2023-03-21T11:49:42.688Z,3.20
2023-03-21T11:52:50.528Z,2.70
2023-03-21T11:55:51.881Z,1.98
2023-03-21T11:59:01.854Z,2.67
2023-03-21T12:02:42.119Z,3.17
2023-03-21T12:05:50.910Z,2.80
2023-03-21T12:08:56.919Z,3.22
2023-03-21T12:12:13.586Z,3.80
2023-03-21T12:15:33.319Z,1.95
2023-03-21T12:18:43.767Z,2.08
2023-03-21T12:22:03.897Z,3.20
2023-03-21T12:25:15.029Z,3.35
2023-03-21T12:28:19.103Z,4.50
2023-03-21T12:31:29.774Z,2.92
2023-03-21T12:34:41.503Z,2.88
2023-03-21T12:38:02.082Z,3.25
2023-03-21T12:41:22.093Z,3.38
2023-03-21T12:44:25.889Z,3.22
2023-03-21T12:47:28.380Z,3.45
2023-03-21T12:50:37.300Z,3.95
2023-03-21T12:53:57.005Z,3.38
2023-03-21T12:57:04.774Z,3.78
2023-03-21T13:00:18.492Z,2.90
2023-03-21T13:03:40.622Z,2.95
2023-03-21T13:06:43.336Z,3.60
2023-03-21T13:09:44.753Z,2.80
2023-03-21T13:12:52.169Z,3.42
2023-03-21T13:16:02.546Z,4.03
2023-03-21T13:19:09.617Z,3.53
2023-03-21T13:22:28.012Z,3.58
2023-03-21T13:25:33.171Z,3.70
2023-03-21T13:28:35.718Z,2.42
2023-03-21T13:31:50.928Z,2.83
2023-03-21T13:35:12.046Z,2.80
2023-03-21T13:38:19.583Z,3.42
2023-03-21T13:41:31.040Z,2.83
2023-03-21T13:44:39.463Z,3.90
2023-03-21T13:47:42.190Z,3.25
2023-03-21T13:50:54.588Z,3.10
2023-03-21T13:54:00.578Z,3.17
2023-03-21T13:57:05.965Z,2.70
2023-03-21T14:00:19.223Z,3.10
2023-03-21T14:03:22.387Z,2.70
2023-03-21T14:06:25.646Z,3.45
2023-03-21T14:09:32.389Z,2.78
2023-03-21T14:12:39.564Z,3.08
2023-03-21T14:15:54.987Z,3.53
2023-03-21T14:19:04.533Z,3.10
2023-03-21T14:22:10.335Z,3.63
2023-03-21T14:25:13.776Z,3.20
2023-03-21T14:28:16.975Z,4.03
2023-03-21T14:31:18.855Z,3.63
2023-03-21T14:34:20.496Z,4.20
2023-03-21T14:37:27.004Z,3.13
2023-03-21T14:40:28.919Z,3.75
2023-03-21T14:43:33.838Z,4.43
2023-03-21T14:46:35.297Z,3.85
2023-03-21T14:49:37.458Z,4.68
2023-03-21T14:52:40.940Z,3.50
2023-03-21T14:55:44.033Z,3.80
2023-03-21T14:58:46.193Z,3.47
2023-03-21T15:01:48.944Z,3.80
2023-03-21T15:04:52.837Z,3.78
2023-03-21T15:07:56.525Z,4.32
2023-03-21T15:11:06.976Z,3.33
2023-03-21T15:14:11.783Z,4.05
2023-03-21T15:17:13.232Z,3.60
2023-03-21T15:20:15.914Z,4.32
2023-03-21T15:23:26.101Z,4.80
2023-03-21T15:26:27.490Z,4.25
2023-03-21T15:29:29.196Z,4.03
2023-03-21T15:32:30.548Z,3.45
2023-03-21T15:35:39.672Z,3.53
2023-03-21T15:38:44.895Z,3.60
2023-03-21T15:42:01.481Z,3.47
2023-03-21T15:45:08.593Z,3.47
2023-03-21T15:48:13.013Z,3.50
2023-03-21T15:54:17.604Z,3.33
2023-03-21T15:57:21.204Z,3.38
2023-03-21T16:01:48.952Z,3.92
2023-03-21T16:04:56.387Z,3.17
2023-03-21T16:07:58.602Z,4.53
2023-03-21T16:11:06.626Z,3.97
2023-03-21T16:14:08.388Z,3.78
2023-03-21T16:17:28.704Z,2.85
2023-03-21T16:20:41.179Z,4.22
2023-03-21T16:23:42.885Z,3.10
2023-03-21T16:26:46.047Z,3.42
2023-03-21T16:29:47.423Z,3.75
2023-03-21T16:32:49.937Z,4.65
2023-03-21T16:35:52.007Z,3.58
2023-03-21T16:38:53.965Z,3.90
2023-03-21T16:41:55.351Z,4.55
2023-03-21T16:44:56.630Z,4.93
2023-03-21T16:47:58.413Z,4.57
2023-03-21T16:50:59.743Z,3.97
2023-03-21T16:54:01.785Z,3.85
2023-03-21T16:57:04.621Z,3.95
2023-03-21T17:00:07.369Z,4.25
2023-03-21T17:03:12.818Z,4.90
2023-03-21T17:06:24.762Z,4.57
2023-03-21T17:09:29.187Z,3.80
2023-03-21T17:15:31.722Z,3.70
2023-03-21T17:18:33.340Z,4.25
2023-03-21T17:21:34.673Z,4.65
2023-03-21T17:24:36.577Z,3.95
2023-03-21T17:27:37.858Z,5.30
2023-03-21T17:30:40.217Z,7.80
2023-03-21T17:33:42.536Z,4.78
2023-03-21T17:36:44.617Z,4.45
2023-03-21T17:39:46.154Z,3.88
2023-03-21T17:42:47.785Z,5.10
2023-03-21T17:45:49.263Z,5.18
2023-03-21T17:48:50.748Z,5.05
2023-03-21T17:51:52.181Z,4.85
2023-03-21T17:54:53.484Z,4.93
2023-03-21T17:57:54.742Z,4.47
2023-03-21T18:00:56.079Z,4.88
2023-03-21T18:03:57.870Z,6.20
2023-03-21T18:06:59.806Z,7.68
2023-03-21T18:10:01.903Z,7.88
2023-03-21T18:13:03.152Z,8.82
2023-03-21T18:16:04.818Z,9.40
2023-03-21T18:19:06.145Z,6.53
2023-03-21T18:22:07.484Z,6.50
2023-03-21T18:25:09.170Z,6.35
2023-03-21T18:28:12.514Z,6.45
2023-03-21T18:31:19.396Z,6.47
2023-03-21T18:34:21.349Z,7.07
2023-03-21T18:37:23.541Z,6.25
2023-03-21T18:40:24.878Z,8.05
2023-03-21T18:44:05.274Z,7.18
2023-03-21T18:46:48.120Z,5.75
2023-03-21T18:53:11.015Z,4.70
2023-03-21T18:56:46.625Z,4.40
2023-03-21T18:59:34.717Z,5.05
2023-03-21T19:02:41.923Z,4.82
2023-03-21T19:05:47.036Z,4.20
2023-03-21T19:08:48.431Z,4.53
2023-03-21T19:11:49.770Z,3.67
2023-03-21T19:14:51.139Z,3.97
2023-03-21T19:21:14.731Z,4.43
2023-03-21T19:24:27.204Z,4.28
2023-03-21T19:27:29.742Z,4.70
2023-03-21T19:30:31.461Z,4.13
2023-03-21T19:33:33.215Z,4.90
2023-03-21T19:36:34.940Z,4.40
2023-03-21T19:39:36.319Z,4.85
2023-03-21T19:42:37.908Z,4.40
2023-03-21T19:45:39.273Z,4.22
2023-03-21T19:48:42.767Z,4.45
2023-03-21T19:51:44.864Z,4.20
2023-03-21T19:54:46.152Z,3.95
2023-03-21T19:57:49.162Z,3.78
2023-03-21T20:00:50.675Z,4.63
2023-03-21T20:03:52.378Z,4.90
2023-03-21T20:06:56.892Z,4.43
2023-03-21T20:09:58.343Z,5.68
2023-03-21T20:12:59.771Z,4.55
2023-03-21T20:16:03.814Z,6.38
2023-03-21T20:19:06.156Z,6.13
2023-03-21T20:22:20.223Z,5.55
2023-03-21T20:25:28.484Z,4.75
2023-03-21T20:28:29.815Z,5.57
2023-03-21T20:31:31.203Z,5.07
2023-03-21T20:34:33.050Z,5.40
2023-03-21T20:37:35.154Z,5.90
2023-03-21T20:40:38.050Z,4.85
2023-03-21T20:47:00.837Z,4.80
2023-03-21T20:50:03.085Z,4.72
2023-03-21T20:53:07.429Z,4.30
2023-03-21T20:59:20.798Z,4.35
2023-03-21T21:02:27.744Z,4.63
2023-03-21T21:05:34.371Z,4.72
2023-03-21T21:08:36.099Z,4.88
2023-03-21T21:14:59.379Z,4.35
2023-03-21T21:18:06.159Z,4.07
2023-03-21T21:21:08.870Z,4.75
2023-03-21T21:24:10.248Z,5.00
2023-03-21T21:27:12.184Z,4.60
2023-03-21T21:30:13.787Z,4.25
2023-03-21T21:33:15.205Z,4.32
2023-03-21T21:36:16.881Z,4.57
2023-03-21T21:39:18.190Z,5.03
2023-03-21T21:42:19.456Z,4.25
2023-03-21T21:45:20.797Z,4.95
2023-03-21T21:48:22.247Z,4.07
2023-03-21T21:51:26.253Z,6.22
2023-03-21T21:54:30.152Z,5.43
2023-03-21T21:57:34.427Z,7.70
2023-03-21T22:00:37.084Z,6.00
2023-03-21T22:03:41.595Z,6.43
2023-03-21T22:06:43.285Z,6.07
2023-03-21T22:09:44.814Z,4.90
2023-03-21T22:12:46.189Z,5.47
2023-03-21T22:15:47.546Z,5.13
2023-03-21T22:18:48.769Z,5.03
2023-03-21T22:21:51.258Z,4.80
2023-03-21T22:24:52.605Z,4.22
2023-03-21T22:27:54.116Z,4.78
2023-03-21T22:30:55.954Z,4.53
2023-03-21T22:33:57.323Z,4.78
2023-03-21T22:36:59.995Z,5.28
2023-03-21T22:40:01.618Z,4.72
2023-03-21T22:43:02.987Z,5.15
2023-03-21T22:46:05.335Z,4.82
2023-03-21T22:49:06.991Z,4.85
2023-03-21T22:52:08.403Z,5.72
2023-03-21T22:55:12.552Z,5.53
2023-03-21T22:58:13.965Z,4.75
2023-03-21T23:01:15.373Z,5.50
2023-03-21T23:04:16.952Z,6.53
2023-03-21T23:07:18.319Z,6.03
2023-03-21T23:10:19.806Z,4.57
2023-03-21T23:13:23.693Z,4.15
2023-03-21T23:16:25.102Z,6.28
2023-03-21T23:19:27.650Z,5.80
2023-03-21T23:22:32.901Z,4.60
2023-03-21T23:25:38.348Z,4.93
2023-03-21T23:28:40.431Z,4.43
2023-03-21T23:31:41.713Z,4.25
2023-03-21T23:34:43.171Z,4.53
2023-03-21T23:37:51.920Z,4.05
2023-03-21T23:40:53.419Z,3.95
2023-03-21T23:43:54.735Z,5.85
2023-03-21T23:46:56.385Z,4.30
2023-03-21T23:49:57.891Z,4.65
2023-03-21T23:52:59.183Z,4.68
2023-03-21T23:56:01.692Z,4.35
2023-03-21T23:59:03.442Z,4.50
